Time;durP1;ratioP1;P1;durP2;ratioP2;P2;SDS_P1;SDS_P2;PMS_P1;PMS_P2;Temp;Humidity;BMP_temperature;BMP_pressure;BME280_temperature;BME280_humidity;BME280_pressure;Samples;Min_cycle;Max_cycle;Signal;HPM_P1;HPM_P2
2021/01/11 00:00:55;;;;;;;23.13;17.20;;;0.60;99.90;;;;;;6274412;28;20480;-64
2021/01/11 00:03:57;;;;;;;25.13;17.80;;;0.60;99.90;;;;;;6273908;28;20821;-66
2021/01/11 00:06:59;;;;;;;24.70;19.63;;;0.50;99.90;;;;;;6269326;28;20477;-65
2021/01/11 00:10:04;;;;;;;24.83;17.97;;;0.50;99.90;;;;;;6254318;28;20473;-62
2021/01/11 00:13:06;;;;;;;23.97;20.00;;;0.50;99.90;;;;;;6254099;28;20479;-62
2021/01/11 00:16:11;;;;;;;24.67;17.87;;;0.50;99.90;;;;;;6254165;28;20470;-61
2021/01/11 00:19:14;;;;;;;24.43;17.97;;;0.50;99.90;;;;;;6254281;28;20479;-61
2021/01/11 00:22:17;;;;;;;20.40;15.03;;;0.50;99.90;;;;;;6254131;28;20475;-61
2021/01/11 00:25:20;;;;;;;23.93;15.97;;;0.50;99.90;;;;;;6254070;28;20482;-61
2021/01/11 00:28:22;;;;;;;20.23;16.00;;;0.40;99.90;;;;;;6253792;28;20470;-61
2021/01/11 00:31:25;;;;;;;18.60;14.13;;;0.30;99.90;;;;;;6253794;28;20478;-62
2021/01/11 00:34:28;;;;;;;22.50;16.00;;;0.30;99.90;;;;;;6253449;28;20974;-65
2021/01/11 00:37:30;;;;;;;20.67;15.87;;;0.30;99.90;;;;;;6251652;28;20482;-65
2021/01/11 00:40:33;;;;;;;20.97;15.73;;;0.20;99.90;;;;;;6251531;28;20800;-64
2021/01/11 00:43:36;;;;;;;17.90;13.07;;;0.20;99.90;;;;;;6251473;28;20524;-65
2021/01/11 00:46:39;;;;;;;20.87;14.60;;;0.20;99.90;;;;;;6251723;28;20560;-64
2021/01/11 00:49:42;;;;;;;17.57;13.63;;;0.20;99.90;;;;;;6251820;28;20478;-65
2021/01/11 00:52:44;;;;;;;19.03;13.53;;;0.10;99.90;;;;;;6253333;28;20466;-64
2021/01/11 00:55:47;;;;;;;17.57;13.13;;;0.20;99.90;;;;;;6253603;28;20970;-64
2021/01/11 00:58:49;;;;;;;17.30;13.10;;;0.20;99.90;;;;;;6253352;28;20475;-65
2021/01/11 01:01:54;;;;;;;19.60;13.00;;;0.10;99.90;;;;;;6252384;28;20507;-65
2021/01/11 01:04:56;;;;;;;18.40;14.00;;;0.10;99.90;;;;;;6253362;28;20475;-64
2021/01/11 01:07:58;;;;;;;17.63;13.27;;;0.20;99.90;;;;;;6253408;28;20467;-64
2021/01/11 01:11:02;;;;;;;20.13;13.43;;;0.20;99.90;;;;;;6253389;28;20471;-64
2021/01/11 01:14:04;;;;;;;15.40;13.10;;;0.20;99.90;;;;;;6252888;28;20478;-64
2021/01/11 01:17:06;;;;;;;18.33;14.37;;;0.30;99.90;;;;;;6251998;28;20973;-65
2021/01/11 01:20:15;;;;;;;15.37;12.97;;;0.20;99.90;;;;;;6252833;28;20475;-65
2021/01/11 01:23:18;;;;;;;18.37;13.50;;;0.20;99.90;;;;;;6253353;28;20486;-65
2021/01/11 01:26:21;;;;;;;16.67;12.30;;;0.10;99.90;;;;;;6252637;28;20467;-65
2021/01/11 01:29:30;;;;;;;14.10;11.33;;;0.10;99.90;;;;;;6252595;28;20494;-64
2021/01/11 01:32:33;;;;;;;17.30;12.57;;;0.00;99.90;;;;;;6252383;28;20475;-65
2021/01/11 01:35:35;;;;;;;14.63;11.50;;;0.10;99.90;;;;;;6247906;28;20802;-65
2021/01/11 01:38:37;;;;;;;16.47;12.27;;;0.10;99.90;;;;;;6252402;28;20475;-65
2021/01/11 01:41:40;;;;;;;19.57;13.23;;;0.20;99.90;;;;;;6252322;28;20483;-65
2021/01/11 01:44:43;;;;;;;16.47;11.23;;;0.00;99.90;;;;;;6251923;28;20494;-65
2021/01/11 01:47:46;;;;;;;17.37;12.00;;;0.10;99.90;;;;;;6252450;28;20462;-65
2021/01/11 01:50:48;;;;;;;14.30;11.13;;;0.00;99.90;;;;;;6251828;28;20601;-65
2021/01/11 01:53:50;;;;;;;15.03;11.43;;;-0.10;99.90;;;;;;6252306;28;20445;-65
2021/01/11 01:56:54;;;;;;;16.40;11.40;;;-0.10;99.90;;;;;;6251802;28;20460;-65
2021/01/11 01:59:56;;;;;;;18.90;12.63;;;-0.20;99.90;;;;;;6251824;28;20911;-65
2021/01/11 02:02:59;;;;;;;13.87;11.30;;;-0.30;99.90;;;;;;6251655;28;20969;-65
2021/01/11 02:06:01;;;;;;;13.80;10.97;;;-0.40;99.90;;;;;;6251634;28;20776;-65
2021/01/11 02:09:08;;;;;;;15.80;11.37;;;-0.50;99.90;;;;;;6251888;28;20462;-65
2021/01/11 02:12:17;;;;;;;14.50;10.67;;;-0.60;99.90;;;;;;6251406;28;20804;-65
2021/01/11 02:15:27;;;;;;;9.80;8.60;;;-0.60;99.90;;;;;;6251605;28;20475;-65
2021/01/11 02:18:39;;;;;;;12.53;9.30;;;-0.60;99.90;;;;;;6251435;28;20467;-65
2021/01/11 02:22:06;;;;;;;13.90;10.30;;;-0.60;99.90;;;;;;6251522;28;20480;-65
2021/01/11 02:25:29;;;;;;;14.07;9.30;;;-0.70;99.90;;;;;;6251497;28;20464;-65
2021/01/11 02:28:54;;;;;;;11.47;9.30;;;-0.70;99.90;;;;;;6251012;28;20463;-65
2021/01/11 02:31:59;;;;;;;15.30;10.43;;;-0.70;99.90;;;;;;6251239;28;20475;-65
2021/01/11 02:35:05;;;;;;;14.27;11.90;;;-0.70;99.90;;;;;;6251413;28;20474;-65
2021/01/11 02:38:08;;;;;;;13.87;10.53;;;-0.80;99.90;;;;;;6250937;28;21042;-65
2021/01/11 02:41:10;;;;;;;11.03;9.57;;;-0.70;99.90;;;;;;6241920;28;20834;-65
2021/01/11 02:44:12;;;;;;;14.20;10.43;;;-0.80;99.90;;;;;;6250916;28;20974;-65
2021/01/11 02:47:20;;;;;;;11.10;8.40;;;-0.80;99.90;;;;;;6250578;28;20985;-64
2021/01/11 02:50:25;;;;;;;16.30;8.90;;;-0.80;99.90;;;;;;6251179;28;20475;-65
2021/01/11 02:53:38;;;;;;;11.97;7.17;;;-0.70;99.90;;;;;;6250660;28;20473;-65
2021/01/11 02:56:44;;;;;;;15.43;9.43;;;-0.60;99.90;;;;;;6250471;28;20821;-64
2021/01/11 02:59:52;;;;;;;11.20;8.43;;;-0.60;99.90;;;;;;6250595;28;20435;-64
2021/01/11 03:02:57;;;;;;;16.70;8.87;;;-0.50;99.90;;;;;;6250796;28;20459;-65
2021/01/11 03:05:59;;;;;;;13.23;8.17;;;-0.50;99.90;;;;;;6250738;28;20424;-65
2021/01/11 03:09:04;;;;;;;9.80;7.93;;;-0.60;99.90;;;;;;6250614;28;20466;-65
2021/01/11 03:12:07;;;;;;;12.97;8.30;;;-0.50;99.90;;;;;;6250371;28;20463;-65
2021/01/11 03:15:11;;;;;;;12.33;9.30;;;-0.50;99.90;;;;;;6249882;28;20490;-65
2021/01/11 03:18:14;;;;;;;10.00;7.63;;;-0.60;99.90;;;;;;6250586;28;20463;-65
2021/01/11 03:21:16;;;;;;;10.07;8.23;;;-0.60;99.90;;;;;;6250078;28;20471;-65
2021/01/11 03:24:19;;;;;;;9.77;8.07;;;-0.70;99.90;;;;;;6249821;28;20493;-65
2021/01/11 03:27:21;;;;;;;13.80;9.27;;;-0.80;99.90;;;;;;6250071;28;20471;-65
2021/01/11 03:30:23;;;;;;;17.47;10.33;;;-0.80;99.90;;;;;;6250081;28;20467;-65
2021/01/11 03:33:27;;;;;;;19.07;10.70;;;-0.80;99.90;;;;;;6249906;28;20467;-65
2021/01/11 03:36:30;;;;;;;19.10;11.13;;;-0.80;99.90;;;;;;6250052;28;20812;-65
2021/01/11 03:39:34;;;;;;;12.90;9.10;;;-0.70;99.90;;;;;;6249707;28;20979;-65
2021/01/11 03:42:38;;;;;;;14.63;9.47;;;-0.60;99.90;;;;;;6240140;28;20490;-65
2021/01/11 03:45:40;;;;;;;10.93;8.40;;;-0.60;99.90;;;;;;6250011;28;20482;-65
2021/01/11 03:48:44;;;;;;;9.80;7.70;;;-0.60;99.90;;;;;;6250151;28;20467;-65
2021/01/11 03:51:46;;;;;;;8.83;7.87;;;-0.60;99.90;;;;;;6249915;28;20513;-68
2021/01/11 03:54:48;;;;;;;8.53;7.73;;;-0.60;99.90;;;;;;6250105;28;20463;-66
2021/01/11 03:57:51;;;;;;;9.13;8.20;;;-0.60;99.90;;;;;;6249303;28;20467;-66
2021/01/11 04:00:53;;;;;;;9.73;7.77;;;-0.60;99.90;;;;;;6249743;28;20471;-66
2021/01/11 04:03:56;;;;;;;11.23;8.40;;;-0.70;99.90;;;;;;6250045;28;20482;-65
2021/01/11 04:06:58;;;;;;;9.27;7.10;;;-0.80;99.90;;;;;;6249665;28;20815;-65
2021/01/11 04:10:00;;;;;;;10.77;7.43;;;-0.90;99.90;;;;;;6249757;28;20807;-65
2021/01/11 04:13:02;;;;;;;7.90;6.90;;;-0.90;99.90;;;;;;6249366;28;20478;-65
2021/01/11 04:16:07;;;;;;;10.13;6.83;;;-0.90;99.90;;;;;;6249269;28;20979;-65
2021/01/11 04:19:10;;;;;;;8.93;6.97;;;-1.00;99.90;;;;;;6249707;28;20478;-65
2021/01/11 04:22:15;;;;;;;7.60;6.27;;;-1.10;99.90;;;;;;6250061;28;20494;-65
2021/01/11 04:25:17;;;;;;;7.40;6.67;;;-1.10;99.90;;;;;;6249450;28;20475;-65
2021/01/11 04:28:20;;;;;;;11.80;9.37;;;-1.10;99.90;;;;;;6249225;28;20471;-65
2021/01/11 04:31:22;;;;;;;12.30;9.10;;;-1.10;99.90;;;;;;6249416;28;20486;-65
2021/01/11 04:34:28;;;;;;;9.43;8.47;;;-1.10;99.90;;;;;;6249313;28;20481;-65
2021/01/11 04:37:30;;;;;;;10.83;8.30;;;-1.10;99.90;;;;;;6249591;28;20474;-65
2021/01/11 04:40:32;;;;;;;9.67;7.80;;;-1.20;99.90;;;;;;6249528;28;20537;-65
2021/01/11 04:43:40;;;;;;;9.30;7.73;;;-1.30;99.90;;;;;;6248875;28;21058;-65
2021/01/11 04:46:44;;;;;;;13.43;8.83;;;-1.40;99.90;;;;;;6244487;28;20906;-65
2021/01/11 04:49:47;;;;;;;11.33;8.00;;;-1.50;99.90;;;;;;6249077;28;20824;-65
2021/01/11 04:52:50;;;;;;;11.80;8.63;;;-1.60;99.90;;;;;;6250251;28;20475;-64
2021/01/11 04:55:54;;;;;;;13.77;7.37;;;-1.60;99.90;;;;;;6253447;28;20821;-64
2021/01/11 04:58:57;;;;;;;7.60;6.70;;;-1.70;99.90;;;;;;6253134;28;20815;-65
2021/01/11 05:02:01;;;;;;;9.03;6.83;;;-1.80;99.90;;;;;;6253327;28;20474;-65
2021/01/11 05:05:06;;;;;;;9.80;7.30;;;-1.80;99.90;;;;;;6253145;28;20562;-65
2021/01/11 05:08:08;;;;;;;10.13;6.80;;;-1.80;99.90;;;;;;6253287;28;20479;-65
2021/01/11 05:11:11;;;;;;;9.23;8.30;;;-1.80;99.90;;;;;;6253367;28;20471;-65
2021/01/11 05:14:19;;;;;;;10.43;7.20;;;-1.90;99.90;;;;;;6252815;28;20467;-65
2021/01/11 05:17:23;;;;;;;7.80;7.00;;;-1.90;99.90;;;;;;6253085;28;20483;-65
2021/01/11 05:20:31;;;;;;;10.53;7.47;;;-1.80;99.90;;;;;;6252768;28;20497;-65
2021/01/11 05:23:38;;;;;;;8.60;7.27;;;-1.80;99.90;;;;;;6252808;28;20963;-65
2021/01/11 05:26:40;;;;;;;9.20;6.63;;;-1.90;99.90;;;;;;6253081;28;20533;-65
2021/01/11 05:29:43;;;;;;;7.90;7.10;;;-2.00;99.90;;;;;;6252553;28;20540;-65
2021/01/11 05:32:46;;;;;;;9.80;6.23;;;-2.00;99.90;;;;;;6252591;28;20458;-65
2021/01/11 05:36:04;;;;;;;8.80;7.20;;;-2.00;99.90;;;;;;6252835;28;20447;-65
2021/01/11 05:39:16;;;;;;;11.17;7.90;;;-2.00;99.90;;;;;;6252519;28;20475;-65
2021/01/11 05:42:21;;;;;;;10.00;7.83;;;-2.00;99.90;;;;;;6252475;28;20467;-65
2021/01/11 05:45:25;;;;;;;9.63;8.57;;;-2.00;99.90;;;;;;6252481;28;20475;-65
2021/01/11 05:48:31;;;;;;;12.30;8.10;;;-2.00;99.90;;;;;;6252437;28;20547;-65
2021/01/11 05:51:36;;;;;;;7.90;6.43;;;-2.00;99.90;;;;;;6252360;28;20471;-65
2021/01/11 05:54:38;;;;;;;8.73;6.40;;;-2.00;99.90;;;;;;6252404;28;20837;-65
2021/01/11 05:57:40;;;;;;;12.80;8.83;;;-2.00;99.90;;;;;;6252070;28;20489;-65
2021/01/11 06:00:43;;;;;;;17.40;10.00;;;-2.10;99.90;;;;;;6252028;28;20475;-65
2021/01/11 06:03:45;;;;;;;24.20;14.77;;;-2.10;99.90;;;;;;6251443;28;20467;-65
2021/01/11 06:06:52;;;;;;;18.73;12.40;;;-2.10;99.90;;;;;;6252384;28;20471;-65
2021/01/11 06:09:55;;;;;;;12.30;9.40;;;-2.00;99.90;;;;;;6273896;28;20471;-65
2021/01/11 06:12:57;;;;;;;12.00;9.40;;;-2.00;99.90;;;;;;6276211;28;20548;-65
2021/01/11 06:16:01;;;;;;;12.03;8.60;;;-2.00;99.90;;;;;;6275984;28;20484;-65
2021/01/11 06:19:09;;;;;;;9.50;8.00;;;-1.90;99.90;;;;;;6276237;28;20551;-65
2021/01/11 06:22:13;;;;;;;7.63;6.87;;;-2.00;99.90;;;;;;6272839;28;20481;-63
2021/01/11 06:25:33;;;;;;;10.50;7.20;;;-2.00;99.90;;;;;;6275657;28;20813;-64
2021/01/11 06:28:35;;;;;;;9.00;8.10;;;-2.00;99.90;;;;;;6275900;28;20463;-63
2021/01/11 06:31:38;;;;;;;8.97;8.07;;;-2.00;99.90;;;;;;6276184;28;20902;-62
2021/01/11 06:34:41;;;;;;;12.60;10.20;;;-1.90;99.90;;;;;;6275688;28;20948;-62
2021/01/11 06:37:44;;;;;;;10.20;9.30;;;-2.00;99.90;;;;;;6275287;28;20480;-62
2021/01/11 06:40:51;;;;;;;8.27;7.33;;;-2.00;99.90;;;;;;6275795;28;20471;-62
2021/01/11 06:43:54;;;;;;;9.53;8.50;;;-2.10;99.90;;;;;;6273535;28;20501;-62
2021/01/11 06:46:57;;;;;;;11.10;7.90;;;-2.10;99.90;;;;;;6273160;28;20632;-62
2021/01/11 06:50:05;;;;;;;8.33;6.93;;;-2.10;99.90;;;;;;6273220;28;21023;-64
2021/01/11 06:53:08;;;;;;;10.47;8.00;;;-2.30;99.90;;;;;;6273289;28;20484;-62
2021/01/11 06:56:12;;;;;;;9.27;7.47;;;-2.30;99.90;;;;;;6264467;28;20489;-62
2021/01/11 06:59:16;;;;;;;11.70;8.93;;;-2.30;99.90;;;;;;6274993;28;20481;-62
2021/01/11 07:02:21;;;;;;;10.30;8.37;;;-2.20;99.90;;;;;;6275112;28;20553;-62
2021/01/11 07:05:45;;;;;;;8.27;6.40;;;-2.20;99.90;;;;;;6275090;28;20475;-61
2021/01/11 07:08:49;;;;;;;11.07;8.17;;;-2.20;99.90;;;;;;6275461;28;20923;-63
2021/01/11 07:11:52;;;;;;;8.60;7.40;;;-2.20;99.90;;;;;;6274717;28;20535;-63
2021/01/11 07:15:05;;;;;;;9.83;7.87;;;-2.10;99.90;;;;;;6274532;28;20449;-62
2021/01/11 07:18:07;;;;;;;8.53;7.63;;;-2.00;99.90;;;;;;6274651;28;20454;-62
2021/01/11 07:21:11;;;;;;;10.40;7.13;;;-2.00;99.90;;;;;;6274688;28;20458;-62
2021/01/11 07:24:14;;;;;;;10.57;7.07;;;-2.00;99.90;;;;;;6275089;28;20470;-62
2021/01/11 07:27:19;;;;;;;9.30;7.37;;;-2.00;99.90;;;;;;6274576;28;20827;-63
2021/01/11 07:30:22;;;;;;;12.10;8.83;;;-2.00;99.90;;;;;;6274880;28;20474;-64
2021/01/11 07:33:24;;;;;;;8.17;7.23;;;-2.00;99.90;;;;;;6274126;28;20974;-63
2021/01/11 07:36:26;;;;;;;8.40;7.47;;;-1.90;99.90;;;;;;6273932;28;20474;-62
2021/01/11 07:39:33;;;;;;;17.60;15.90;;;-1.90;99.90;;;;;;6273981;28;20485;-62
2021/01/11 07:42:35;;;;;;;13.03;10.73;;;-2.00;99.90;;;;;;6274098;28;20481;-63
2021/01/11 07:45:37;;;;;;;9.47;8.57;;;-2.00;99.90;;;;;;6273974;28;20549;-62
2021/01/11 07:48:40;;;;;;;14.53;11.97;;;-1.90;99.90;;;;;;6273504;28;20864;-63
2021/01/11 07:51:45;;;;;;;10.07;8.97;;;-1.90;99.90;;;;;;6274539;28;20463;-63
2021/01/11 07:54:56;;;;;;;11.00;9.17;;;-1.90;99.80;;;;;;6273925;28;20489;-63
2021/01/11 07:58:01;;;;;;;10.17;7.77;;;-1.80;99.80;;;;;;6268129;28;21084;-62
2021/01/11 08:01:08;;;;;;;11.77;7.60;;;-1.80;99.80;;;;;;6273257;28;20550;-62
2021/01/11 08:04:12;;;;;;;9.23;7.80;;;-1.80;99.80;;;;;;6272728;28;20913;-63
2021/01/11 08:07:15;;;;;;;8.87;7.90;;;-1.80;99.80;;;;;;6267722;28;20466;-62
2021/01/11 08:10:23;;;;;;;12.80;6.90;;;-1.70;99.70;;;;;;6271777;28;20947;-63
2021/01/11 08:13:25;;;;;;;10.33;9.13;;;-1.60;99.70;;;;;;6273685;28;20463;-63
2021/01/11 08:16:28;;;;;;;9.60;7.70;;;-1.50;99.50;;;;;;6272836;28;20485;-63
2021/01/11 08:19:31;;;;;;;9.57;8.07;;;-1.50;99.60;;;;;;6273754;28;20484;-63
2021/01/11 08:22:33;;;;;;;8.10;7.30;;;-1.40;99.70;;;;;;6273635;28;20799;-62
2021/01/11 08:25:36;;;;;;;11.00;6.90;;;-1.40;99.60;;;;;;6273447;28;20472;-62
2021/01/11 08:28:41;;;;;;;9.20;7.70;;;-1.30;99.60;;;;;;6277503;28;20477;-62
2021/01/11 08:31:45;;;;;;;12.70;7.73;;;-1.30;99.60;;;;;;6278041;28;20466;-66
2021/01/11 08:34:47;;;;;;;9.27;7.30;;;-1.20;99.60;;;;;;6278093;28;20799;-65
2021/01/11 08:37:50;;;;;;;8.90;7.33;;;-1.10;99.40;;;;;;6278331;28;20809;-64
2021/01/11 08:40:53;;;;;;;9.40;7.23;;;-1.00;99.30;;;;;;6278232;28;20474;-65
2021/01/11 08:43:55;;;;;;;11.87;7.77;;;-0.90;99.10;;;;;;6278063;28;20477;-64
2021/01/11 08:47:04;;;;;;;11.63;9.13;;;-0.80;99.20;;;;;;6278432;28;20462;-64
2021/01/11 08:50:07;;;;;;;8.77;7.90;;;-0.70;98.90;;;;;;6278382;28;20482;-64
2021/01/11 08:53:28;;;;;;;12.83;7.37;;;-0.60;98.90;;;;;;6278257;28;20469;-64
2021/01/11 08:56:35;;;;;;;10.97;8.40;;;-0.50;99.00;;;;;;6277839;28;20470;-64
2021/01/11 08:59:46;;;;;;;11.20;8.60;;;-0.40;98.90;;;;;;6277694;28;20467;-65
2021/01/11 09:02:48;;;;;;;8.63;7.73;;;-0.20;98.90;;;;;;6299569;28;20535;-64
2021/01/11 09:05:50;;;;;;;8.73;7.37;;;-0.10;98.70;;;;;;6302738;28;20874;-66
2021/01/11 09:09:04;;;;;;;9.83;7.63;;;0.00;98.50;;;;;;6301933;28;20955;-64
2021/01/11 09:12:08;;;;;;;8.13;7.33;;;0.00;98.40;;;;;;6299385;28;20458;-64
2021/01/11 09:15:12;;;;;;;7.43;6.70;;;0.20;98.50;;;;;;6277602;28;20460;-66
2021/01/11 09:18:15;;;;;;;8.57;6.53;;;0.20;97.90;;;;;;6277503;28;20486;-65
2021/01/11 09:21:24;;;;;;;11.23;7.00;;;0.20;97.80;;;;;;6277157;28;20472;-64
2021/01/11 09:24:27;;;;;;;10.43;6.60;;;0.30;97.70;;;;;;6274339;28;20805;-64
2021/01/11 09:27:31;;;;;;;7.60;6.83;;;0.40;97.80;;;;;;6277328;28;20524;-65
2021/01/11 09:30:34;;;;;;;7.90;6.47;;;0.40;97.30;;;;;;6277538;28;20470;-63
2021/01/11 09:33:37;;;;;;;7.13;6.13;;;0.40;97.10;;;;;;6277829;28;20477;-62
2021/01/11 09:36:40;;;;;;;7.27;6.47;;;0.50;96.80;;;;;;6277250;28;20804;-63
2021/01/11 09:39:42;;;;;;;7.90;6.70;;;0.50;96.70;;;;;;6276214;28;20480;-63
2021/01/11 09:42:47;;;;;;;8.43;6.77;;;0.50;97.00;;;;;;6258559;28;20546;-64
2021/01/11 09:45:49;;;;;;;10.60;7.80;;;0.60;96.70;;;;;;6252181;28;20554;-62
2021/01/11 09:48:52;;;;;;;11.70;7.47;;;0.80;97.10;;;;;;6265603;28;20480;-65
2021/01/11 09:51:57;;;;;;;10.50;6.80;;;0.90;97.20;;;;;;6276441;28;20696;-64
2021/01/11 09:54:59;;;;;;;9.33;7.00;;;1.00;96.90;;;;;;6276904;28;20480;-64
2021/01/11 09:58:04;;;;;;;7.47;6.53;;;1.10;96.80;;;;;;6276658;28;20473;-65
2021/01/11 10:01:06;;;;;;;8.93;6.60;;;1.10;96.60;;;;;;6276770;28;20474;-64
2021/01/11 10:04:11;;;;;;;12.20;8.70;;;1.20;96.60;;;;;;6267340;28;20481;-65
2021/01/11 10:07:13;;;;;;;8.70;6.40;;;1.20;96.60;;;;;;6274830;28;20470;-64
2021/01/11 10:10:15;;;;;;;10.37;6.70;;;1.30;96.50;;;;;;6251186;28;20830;-64
2021/01/11 10:13:19;;;;;;;8.33;6.50;;;1.40;96.40;;;;;;6251494;28;20656;-63
2021/01/11 10:16:21;;;;;;;11.03;7.63;;;1.50;96.30;;;;;;6274021;28;20954;-65
2021/01/11 10:19:24;;;;;;;11.13;7.83;;;1.60;96.20;;;;;;6276200;28;20478;-64
2021/01/11 10:22:28;;;;;;;9.13;7.10;;;1.70;96.00;;;;;;6275743;28;20486;-64
2021/01/11 10:25:30;;;;;;;6.63;5.70;;;1.80;95.80;;;;;;6275741;28;20502;-64
2021/01/11 10:28:33;;;;;;;10.50;5.87;;;1.80;95.60;;;;;;6260832;28;20533;-65
2021/01/11 10:31:36;;;;;;;7.23;6.60;;;1.90;95.40;;;;;;6268232;28;20471;-66
2021/01/11 10:34:38;;;;;;;9.40;6.73;;;2.00;95.70;;;;;;6250699;28;20496;-65
2021/01/11 10:37:43;;;;;;;11.07;7.80;;;2.00;95.50;;;;;;6271910;28;20462;-65
2021/01/11 10:40:45;;;;;;;6.90;6.10;;;2.00;95.10;;;;;;6275451;28;20482;-65
2021/01/11 10:43:49;;;;;;;8.50;6.43;;;2.20;94.40;;;;;;6273778;28;20497;-64
2021/01/11 10:46:52;;;;;;;6.43;5.80;;;2.30;93.80;;;;;;6251437;28;20471;-65
2021/01/11 10:49:55;;;;;;;7.60;6.20;;;2.40;93.50;;;;;;6250792;28;20471;-65
2021/01/11 10:52:57;;;;;;;23.70;10.17;;;2.50;93.30;;;;;;6251096;28;20502;-65
2021/01/11 10:55:59;;;;;;;15.00;11.23;;;2.50;94.00;;;;;;6250459;28;20984;-64
2021/01/11 10:59:05;;;;;;;13.53;11.23;;;2.50;94.10;;;;;;6250171;28;20536;-64
2021/01/11 11:02:08;;;;;;;14.67;10.97;;;2.60;94.60;;;;;;6261574;28;20474;-63
2021/01/11 11:05:12;;;;;;;13.33;10.80;;;2.70;94.30;;;;;;6274904;28;20480;-64
2021/01/11 11:08:14;;;;;;;14.77;11.13;;;2.90;93.70;;;;;;6255498;28;20475;-64
2021/01/11 11:11:19;;;;;;;14.07;10.93;;;2.90;94.00;;;;;;6250279;28;20483;-64
2021/01/11 11:14:22;;;;;;;12.50;10.27;;;3.00;93.70;;;;;;6256002;28;20958;-64
2021/01/11 11:17:24;;;;;;;12.50;10.57;;;3.30;93.40;;;;;;6274573;28;20486;-66
2021/01/11 11:20:27;;;;;;;12.20;10.30;;;3.60;93.40;;;;;;6274621;28;20474;-64
2021/01/11 11:23:29;;;;;;;16.00;10.40;;;5.80;91.50;;;;;;6274451;28;20473;-63
2021/01/11 11:26:32;;;;;;;16.17;11.70;;;10.70;79.60;;;;;;6274724;28;20465;-63
2021/01/11 11:29:35;;;;;;;11.77;10.47;;;14.50;56.20;;;;;;6273811;28;20977;-66
2021/01/11 11:32:38;;;;;;;14.40;11.40;;;16.90;45.00;;;;;;6274405;28;20479;-65
2021/01/11 11:35:42;;;;;;;15.80;12.50;;;15.80;40.40;;;;;;6273911;28;20998;-65
2021/01/11 11:38:44;;;;;;;15.77;11.30;;;14.00;41.50;;;;;;6273717;28;20474;-64
2021/01/11 11:41:46;;;;;;;11.20;10.00;;;12.70;44.10;;;;;;6273845;28;20535;-62
2021/01/11 11:44:50;;;;;;;17.23;11.20;;;14.30;44.20;;;;;;6273890;28;20822;-64
2021/01/11 11:47:52;;;;;;;10.37;9.33;;;17.90;39.50;;;;;;6273338;28;20524;-64
2021/01/11 11:50:54;;;;;;;12.83;10.40;;;21.10;33.60;;;;;;6273712;28;20462;-64
2021/01/11 11:53:57;;;;;;;11.87;10.87;;;23.60;29.80;;;;;;6274165;28;20199;-67
2021/01/11 11:56:59;;;;;;;10.80;9.80;;;25.60;27.10;;;;;;6274320;28;20215;-64
2021/01/11 12:00:04;;;;;;;12.03;10.83;;;26.90;24.30;;;;;;6273832;28;20527;-65
2021/01/11 12:03:06;;;;;;;11.57;10.67;;;27.40;23.40;;;;;;6278228;28;20200;-62
2021/01/11 12:06:08;;;;;;;11.77;10.67;;;28.40;22.30;;;;;;6278979;28;20281;-64
2021/01/11 12:09:11;;;;;;;11.97;10.87;;;27.50;22.00;;;;;;6248379;28;20228;-64
2021/01/11 12:12:14;;;;;;;10.93;9.93;;;28.40;21.60;;;;;;6254317;28;20246;-64
2021/01/11 12:15:17;;;;;;;11.70;10.70;;;27.90;20.90;;;;;;6268530;28;20234;-64
2021/01/11 12:18:20;;;;;;;11.10;10.10;;;28.30;21.00;;;;;;6279044;28;20369;-64
2021/01/11 12:21:28;;;;;;;12.23;11.13;;;28.40;20.40;;;;;;6278991;28;20235;-63
2021/01/11 12:24:30;;;;;;;13.40;12.20;;;28.70;21.00;;;;;;6278896;28;20231;-64
2021/01/11 12:27:33;;;;;;;12.03;10.90;;;28.80;20.30;;;;;;6278492;28;20230;-64
2021/01/11 12:30:36;;;;;;;14.03;12.63;;;28.40;20.50;;;;;;6278658;28;20234;-63
2021/01/11 12:33:38;;;;;;;13.80;12.60;;;28.20;20.80;;;;;;6278572;28;20223;-63
2021/01/11 12:36:40;;;;;;;12.93;11.73;;;28.60;20.70;;;;;;6278232;28;20238;-63
2021/01/11 12:39:43;;;;;;;12.10;11.07;;;28.30;20.40;;;;;;6278575;28;20235;-65
2021/01/11 12:42:45;;;;;;;12.30;11.20;;;28.00;20.30;;;;;;6278218;28;20579;-65
2021/01/11 12:45:48;;;;;;;11.20;10.17;;;27.10;20.30;;;;;;6277926;28;20842;-65
2021/01/11 12:48:51;;;;;;;11.00;10.10;;;27.30;20.20;;;;;;6278470;28;20254;-64
2021/01/11 12:51:56;;;;;;;11.80;10.70;;;27.90;20.20;;;;;;6277350;28;20318;-63
2021/01/11 12:54:58;;;;;;;10.27;9.40;;;28.10;19.50;;;;;;6277429;28;20238;-63
2021/01/11 12:58:00;;;;;;;12.63;11.57;;;28.40;19.50;;;;;;6277573;28;20235;-63
2021/01/11 13:01:04;;;;;;;11.27;10.20;;;28.60;19.30;;;;;;6277794;28;20242;-65
2021/01/11 13:04:06;;;;;;;11.10;10.00;;;28.80;19.30;;;;;;6277323;28;20313;-66
2021/01/11 13:07:11;;;;;;;10.17;9.27;;;28.70;18.60;;;;;;6276079;28;20231;-65
2021/01/11 13:10:14;;;;;;;10.90;9.50;;;27.90;19.20;;;;;;6252751;28;20242;-65
2021/01/11 13:13:16;;;;;;;9.27;8.40;;;28.00;19.10;;;;;;6242352;28;20243;-64
2021/01/11 13:16:26;;;;;;;9.27;8.10;;;28.20;18.80;;;;;;6275239;28;20278;-64
2021/01/11 13:19:29;;;;;;;9.13;8.43;;;27.80;18.60;;;;;;6277319;28;20235;-64
2021/01/11 13:22:31;;;;;;;9.30;8.50;;;27.80;18.90;;;;;;6277118;28;20246;-65
2021/01/11 13:25:33;;;;;;;9.10;8.30;;;27.60;19.20;;;;;;6277168;28;20236;-65
2021/01/11 13:28:36;;;;;;;8.97;8.27;;;27.60;19.00;;;;;;6277072;28;20232;-62
2021/01/11 13:31:43;;;;;;;8.73;8.03;;;27.60;18.80;;;;;;6277345;28;20638;-64
2021/01/11 13:34:46;;;;;;;10.10;8.20;;;27.30;18.80;;;;;;6279033;28;20239;-65
2021/01/11 13:37:48;;;;;;;7.83;7.20;;;26.20;19.10;;;;;;6276814;28;20228;-66
2021/01/11 13:40:51;;;;;;;8.10;7.40;;;25.60;19.20;;;;;;6277004;28;20238;-66
2021/01/11 13:43:54;;;;;;;8.07;7.30;;;25.00;19.50;;;;;;6276778;28;20231;-64
2021/01/11 13:46:58;;;;;;;7.53;6.83;;;25.00;19.40;;;;;;6276962;28;20675;-64
2021/01/11 13:50:02;;;;;;;8.03;7.33;;;24.80;19.20;;;;;;6276738;28;20232;-65
2021/01/11 13:53:05;;;;;;;8.17;7.47;;;24.60;19.80;;;;;;6276917;28;20380;-65
2021/01/11 13:56:08;;;;;;;8.13;7.33;;;24.40;20.50;;;;;;6276810;28;20244;-65
2021/01/11 13:59:12;;;;;;;7.17;6.47;;;24.10;20.20;;;;;;6276731;28;20239;-65
2021/01/11 14:02:16;;;;;;;7.97;7.17;;;23.80;20.90;;;;;;6276347;28;20231;-65
2021/01/11 14:05:19;;;;;;;7.07;6.50;;;23.10;21.00;;;;;;6276605;28;20749;-65
2021/01/11 14:08:21;;;;;;;6.17;5.60;;;22.70;20.90;;;;;;6264544;28;20228;-65
2021/01/11 14:11:25;;;;;;;8.90;7.63;;;22.20;20.80;;;;;;6251982;28;20232;-66
2021/01/11 14:14:29;;;;;;;9.13;8.33;;;21.70;21.10;;;;;;6258840;28;20224;-64
2021/01/11 14:17:32;;;;;;;10.53;9.63;;;20.70;22.40;;;;;;6271099;28;20236;-67
2021/01/11 14:20:35;;;;;;;10.50;8.53;;;20.00;23.20;;;;;;6276036;28;20478;-62
2021/01/11 14:23:37;;;;;;;9.33;8.20;;;19.40;24.00;;;;;;6276048;28;20480;-64
2021/01/11 14:26:39;;;;;;;8.67;6.57;;;18.90;24.70;;;;;;6275458;28;21092;-64
2021/01/11 14:29:42;;;;;;;9.60;8.70;;;18.00;23.80;;;;;;6275406;28;20822;-63
2021/01/11 14:32:45;;;;;;;12.97;10.00;;;16.80;25.30;;;;;;6275596;28;20502;-64
2021/01/11 14:35:47;;;;;;;9.73;8.80;;;15.60;26.80;;;;;;6275476;28;20475;-63
2021/01/11 14:38:49;;;;;;;14.90;8.90;;;14.30;28.20;;;;;;6275002;28;20801;-65
2021/01/11 14:41:52;;;;;;;10.53;8.57;;;12.70;30.00;;;;;;6275577;28;20462;-64
2021/01/11 14:44:54;;;;;;;11.80;9.60;;;11.40;32.10;;;;;;6275723;28;20559;-62
2021/01/11 14:48:00;;;;;;;10.03;8.33;;;10.20;34.40;;;;;;6275070;28;20859;-61
2021/01/11 14:51:07;;;;;;;12.83;9.23;;;8.80;37.80;;;;;;6275485;28;20485;-63
2021/01/11 14:54:10;;;;;;;10.97;8.30;;;8.20;39.70;;;;;;6274940;28;20783;-60
2021/01/11 14:57:12;;;;;;;9.50;7.50;;;7.50;41.50;;;;;;6273708;28;20537;-61
2021/01/11 15:00:16;;;;;;;11.73;9.30;;;6.90;44.40;;;;;;6273738;28;20458;-62
2021/01/11 15:03:19;;;;;;;12.80;10.40;;;6.40;46.50;;;;;;6275044;28;20512;-60
2021/01/11 15:06:21;;;;;;;10.90;9.77;;;6.00;47.90;;;;;;6274519;28;20496;-61
2021/01/11 15:09:24;;;;;;;13.57;10.30;;;5.70;49.30;;;;;;6254899;28;20514;-61
2021/01/11 15:12:26;;;;;;;14.17;9.13;;;5.30;50.80;;;;;;6250242;28;20470;-63
2021/01/11 15:15:28;;;;;;;15.13;10.63;;;5.20;51.70;;;;;;6265987;28;20568;-65
2021/01/11 15:18:32;;;;;;;11.33;9.40;;;5.00;52.30;;;;;;6275310;28;20470;-63
2021/01/11 15:21:35;;;;;;;14.37;10.57;;;4.70;53.40;;;;;;6265734;28;20489;-62
2021/01/11 15:24:37;;;;;;;11.07;9.57;;;4.50;54.30;;;;;;6274848;28;20492;-61
2021/01/11 15:27:39;;;;;;;12.93;9.70;;;4.30;55.40;;;;;;6274072;28;21006;-63
2021/01/11 15:30:41;;;;;;;14.83;9.60;;;4.20;56.30;;;;;;6274164;28;20873;-64
2021/01/11 15:33:44;;;;;;;12.40;10.00;;;4.00;57.30;;;;;;6274665;28;20472;-63
2021/01/11 15:36:47;;;;;;;26.67;19.07;;;3.90;58.20;;;;;;6274202;28;20471;-63
2021/01/11 15:39:49;;;;;;;17.57;10.97;;;3.70;58.90;;;;;;6274381;28;20691;-64
2021/01/11 15:42:54;;;;;;;10.97;9.87;;;3.60;60.80;;;;;;6267773;28;20551;-63
2021/01/11 15:45:56;;;;;;;12.90;9.90;;;3.50;63.00;;;;;;6265846;28;20477;-62
2021/01/11 15:49:00;;;;;;;15.10;9.80;;;3.50;64.70;;;;;;6250432;28;20853;-63